createdAt,value
2022-12-25T00:02:18.293Z,11.95
2022-12-25T00:04:44.748Z,11.10
2022-12-25T00:07:11.853Z,10.50
2022-12-25T00:09:38.307Z,11.50
2022-12-25T00:12:04.863Z,11.38
2022-12-25T00:14:31.287Z,12.00
2022-12-25T00:16:57.825Z,10.95
2022-12-25T00:19:24.273Z,10.85
2022-12-25T00:21:50.717Z,9.98
2022-12-25T00:24:17.182Z,10.45
2022-12-25T00:26:43.662Z,11.20
2022-12-25T00:29:12.056Z,11.40
2022-12-25T00:31:38.526Z,11.63
2022-12-25T00:34:05.241Z,11.48
2022-12-25T00:36:34.927Z,11.90
2022-12-25T00:39:04.652Z,10.63
2022-12-25T00:41:49.802Z,11.30
2022-12-25T00:44:16.322Z,11.70
2022-12-25T00:46:43.235Z,11.60
2022-12-25T00:49:10.300Z,10.32
2022-12-25T00:51:36.756Z,10.55
2022-12-25T00:54:03.287Z,10.60
2022-12-25T00:56:29.751Z,10.45
2022-12-25T00:58:56.317Z,11.18
2022-12-25T01:01:22.971Z,10.63
2022-12-25T01:03:50.526Z,10.43
2022-12-25T01:06:17.399Z,10.50
2022-12-25T01:09:02.941Z,9.55
2022-12-25T01:11:29.514Z,9.90
2022-12-25T01:13:56.032Z,9.65
2022-12-25T01:16:22.744Z,9.65
2022-12-25T01:18:49.232Z,9.57
2022-12-25T01:21:16.471Z,8.52
2022-12-25T01:23:43.323Z,9.30
2022-12-25T01:26:11.602Z,9.07
2022-12-25T01:28:38.733Z,9.00
2022-12-25T01:31:05.696Z,9.40
2022-12-25T01:33:32.274Z,9.98
2022-12-25T01:35:58.804Z,9.43
2022-12-25T01:38:25.342Z,9.48
2022-12-25T01:40:51.970Z,8.38
2022-12-25T01:43:24.747Z,9.38
2022-12-25T01:45:52.771Z,8.85
2022-12-25T01:48:30.649Z,8.63
2022-12-25T01:51:08.740Z,7.85
2022-12-25T01:53:35.269Z,8.27
2022-12-25T01:56:06.017Z,9.50
2022-12-25T01:58:32.723Z,7.60
2022-12-25T02:00:59.203Z,7.97
2022-12-25T02:03:26.074Z,9.02
2022-12-25T02:05:52.757Z,8.32
2022-12-25T02:08:20.596Z,7.85
2022-12-25T02:10:47.026Z,7.63
2022-12-25T02:13:14.748Z,7.35
2022-12-25T02:15:53.085Z,8.00
2022-12-25T02:18:25.744Z,8.25
2022-12-25T02:21:03.302Z,7.00
2022-12-25T02:23:29.805Z,7.25
2022-12-25T02:25:56.227Z,7.13
2022-12-25T02:28:28.831Z,7.45
2022-12-25T02:31:00.014Z,7.07
2022-12-25T02:33:51.379Z,7.28
2022-12-25T02:36:21.502Z,7.70
2022-12-25T02:39:10.793Z,6.47
2022-12-25T02:41:39.196Z,6.72
2022-12-25T02:44:27.689Z,7.07
2022-12-25T02:47:13.077Z,6.20
2022-12-25T02:49:58.965Z,7.85
2022-12-25T02:52:45.921Z,6.45
2022-12-25T02:55:32.740Z,7.18
2022-12-25T02:58:19.424Z,7.10
2022-12-25T03:01:08.670Z,6.43
2022-12-25T03:04:10.331Z,6.47
2022-12-25T03:06:43.151Z,7.38
2022-12-25T03:09:43.666Z,7.20
2022-12-25T03:12:16.565Z,5.45
2022-12-25T03:15:01.901Z,5.45
2022-12-25T03:17:28.333Z,6.10
2022-12-25T03:20:13.854Z,6.32
2022-12-25T03:23:01.505Z,6.38
2022-12-25T03:25:47.201Z,5.65
2022-12-25T03:28:13.849Z,6.15
2022-12-25T03:31:02.245Z,5.82
2022-12-25T03:33:46.687Z,6.00
2022-12-25T03:36:18.649Z,4.90
2022-12-25T03:39:28.064Z,5.15
2022-12-25T03:42:15.966Z,5.07
2022-12-25T03:45:20.234Z,5.18
2022-12-25T03:48:06.686Z,5.28
2022-12-25T03:50:51.793Z,5.53
2022-12-25T03:53:42.899Z,4.40
2022-12-25T03:56:28.328Z,4.93
2022-12-25T03:59:21.061Z,4.68
2022-12-25T04:02:08.732Z,4.68
2022-12-25T04:04:54.009Z,4.18
2022-12-25T04:07:39.239Z,4.32
2022-12-25T04:10:24.528Z,4.53
2022-12-25T04:13:10.974Z,5.00
2022-12-25T04:15:56.293Z,4.50
2022-12-25T04:18:41.319Z,4.57
2022-12-25T04:21:26.412Z,5.75
2022-12-25T04:24:11.284Z,4.28
2022-12-25T04:26:56.126Z,4.72
2022-12-25T04:29:41.306Z,4.60
2022-12-25T04:32:27.978Z,4.40
2022-12-25T04:35:12.925Z,4.60
2022-12-25T04:37:39.382Z,4.30
2022-12-25T04:40:06.257Z,5.35
2022-12-25T04:42:32.764Z,4.13
2022-12-25T04:44:59.254Z,4.38
2022-12-25T04:47:25.694Z,4.20
2022-12-25T04:49:52.170Z,4.57
2022-12-25T04:52:18.556Z,4.47
2022-12-25T04:54:44.980Z,4.47
2022-12-25T04:57:11.472Z,4.38
2022-12-25T04:59:37.956Z,4.80
2022-12-25T05:02:04.639Z,4.53
2022-12-25T05:04:31.172Z,3.90
2022-12-25T05:06:57.614Z,4.60
2022-12-25T05:09:25.270Z,4.55
2022-12-25T05:11:51.784Z,4.63
2022-12-25T05:14:18.285Z,4.18
2022-12-25T05:16:44.810Z,4.60
2022-12-25T05:19:11.230Z,4.28
2022-12-25T05:21:37.695Z,4.00
2022-12-25T05:24:04.235Z,3.90
2022-12-25T05:26:30.672Z,4.82
2022-12-25T05:28:57.153Z,4.65
2022-12-25T05:31:23.693Z,4.57
2022-12-25T05:33:51.445Z,4.30
2022-12-25T05:36:18.191Z,3.50
2022-12-25T05:38:44.639Z,4.35
2022-12-25T05:41:11.133Z,4.15
2022-12-25T05:43:37.544Z,4.15
2022-12-25T05:46:06.140Z,4.45
2022-12-25T05:48:33.770Z,4.40
2022-12-25T05:51:03.853Z,4.30
2022-12-25T05:53:30.241Z,3.83
2022-12-25T05:56:00.214Z,4.07
2022-12-25T05:58:26.686Z,4.00
2022-12-25T06:00:53.122Z,4.10
2022-12-25T06:03:19.735Z,4.10
2022-12-25T06:05:46.234Z,3.80
2022-12-25T06:08:12.652Z,5.07
2022-12-25T06:10:39.064Z,4.28
2022-12-25T06:13:05.633Z,4.57
2022-12-25T06:15:32.417Z,4.05
2022-12-25T06:18:01.962Z,3.70
2022-12-25T06:20:28.468Z,3.80
2022-12-25T06:22:54.929Z,4.30
2022-12-25T06:25:24.051Z,3.42
2022-12-25T06:27:50.521Z,3.35
2022-12-25T06:30:17.018Z,4.18
2022-12-25T06:32:43.459Z,3.25
2022-12-25T06:35:09.949Z,3.05
2022-12-25T06:37:36.406Z,2.83
2022-12-25T06:40:02.993Z,2.90
2022-12-25T06:42:29.391Z,3.13
2022-12-25T06:44:55.887Z,2.83
2022-12-25T06:47:22.359Z,3.25
2022-12-25T06:49:48.787Z,3.10
2022-12-25T06:52:15.270Z,3.30
2022-12-25T06:54:41.719Z,8.23
2022-12-25T06:57:08.171Z,3.00
2022-12-25T06:59:34.585Z,2.90
2022-12-25T07:02:01.148Z,2.67
2022-12-25T07:04:35.484Z,2.78
2022-12-25T07:07:08.437Z,3.30
2022-12-25T07:12:15.636Z,3.20
2022-12-25T07:14:42.212Z,2.47
2022-12-25T07:17:08.664Z,4.30
2022-12-25T07:19:39.671Z,3.80
2022-12-25T07:22:09.267Z,3.47
2022-12-25T07:24:35.696Z,3.92
2022-12-25T07:27:02.230Z,3.60
2022-12-25T07:29:28.685Z,3.42
2022-12-25T07:31:55.227Z,2.80
2022-12-25T07:34:22.662Z,3.97
2022-12-25T07:36:49.060Z,3.65
2022-12-25T07:39:16.368Z,4.20
2022-12-25T07:41:46.083Z,3.92
2022-12-25T07:44:12.567Z,4.00
2022-12-25T07:46:39.016Z,4.72
2022-12-25T07:49:05.563Z,5.47
2022-12-25T07:51:32.032Z,7.53
2022-12-25T07:53:58.489Z,6.22
2022-12-25T07:56:25.142Z,5.13
2022-12-25T07:58:51.663Z,5.05
2022-12-25T08:01:22.589Z,5.40
2022-12-25T08:03:57.104Z,4.50
2022-12-25T08:06:25.464Z,4.10
2022-12-25T08:08:54.394Z,3.97
2022-12-25T08:11:20.908Z,4.22
2022-12-25T08:13:47.340Z,4.20
2022-12-25T08:16:13.920Z,3.90
2022-12-25T08:18:40.902Z,4.45
2022-12-25T08:21:08.892Z,4.03
2022-12-25T08:23:36.550Z,3.60
2022-12-25T08:26:05.335Z,4.28
2022-12-25T08:28:32.886Z,4.28
2022-12-25T08:30:59.410Z,5.72
2022-12-25T08:33:25.947Z,4.68
2022-12-25T08:35:52.344Z,6.22
2022-12-25T08:38:20.260Z,5.20
2022-12-25T08:40:46.732Z,5.22
2022-12-25T08:43:13.169Z,5.63
2022-12-25T08:45:39.571Z,4.68
2022-12-25T08:48:06.006Z,8.50
2022-12-25T08:50:32.554Z,8.85
2022-12-25T08:52:59.072Z,11.30
2022-12-25T08:55:25.613Z,7.45
2022-12-25T08:57:52.578Z,13.95
2022-12-25T09:00:19.236Z,10.65
2022-12-25T09:02:45.735Z,7.18
2022-12-25T09:05:12.361Z,6.57
2022-12-25T09:07:38.777Z,5.50
2022-12-25T09:10:05.508Z,6.22
2022-12-25T09:12:35.226Z,6.15
2022-12-25T09:15:01.648Z,6.40
2022-12-25T09:17:28.077Z,6.15
2022-12-25T09:19:54.510Z,8.68
2022-12-25T09:22:20.913Z,10.07
2022-12-25T09:24:47.360Z,9.20
2022-12-25T09:27:13.785Z,9.13
2022-12-25T09:29:40.557Z,22.17
2022-12-25T09:32:07.239Z,8.07
2022-12-25T09:34:33.684Z,8.50
2022-12-25T09:37:00.179Z,7.03
2022-12-25T09:39:26.813Z,8.45
2022-12-25T09:41:56.662Z,7.72
2022-12-25T09:44:25.811Z,6.63
2022-12-25T09:47:01.465Z,11.32
2022-12-25T09:49:44.347Z,14.07
2022-12-25T09:52:14.590Z,8.55
2022-12-25T09:54:47.637Z,10.95
2022-12-25T09:57:14.827Z,11.13
2022-12-25T09:59:45.116Z,6.53
2022-12-25T10:02:11.747Z,12.07
2022-12-25T10:04:40.941Z,15.60
2022-12-25T10:07:16.778Z,9.80
2022-12-25T10:10:09.687Z,31.35
2022-12-25T10:12:49.482Z,21.52
2022-12-25T10:15:22.171Z,16.77
2022-12-25T10:17:48.703Z,22.07
2022-12-25T10:20:25.054Z,21.38
2022-12-25T10:22:54.332Z,16.33
2022-12-25T10:25:22.379Z,14.73
2022-12-25T10:27:50.955Z,19.65
2022-12-25T10:30:24.656Z,39.75
2022-12-25T10:32:51.673Z,31.52
2022-12-25T10:35:23.468Z,52.05
2022-12-25T10:38:00.832Z,19.55
2022-12-25T10:40:30.638Z,29.83
2022-12-25T10:43:15.415Z,16.58
2022-12-25T10:45:49.340Z,36.10
2022-12-25T10:48:24.155Z,25.95
2022-12-25T10:50:51.028Z,20.63
2022-12-25T10:53:19.500Z,13.95
2022-12-25T10:55:56.460Z,11.77
2022-12-25T10:58:23.287Z,18.73
2022-12-25T11:00:54.585Z,17.38
2022-12-25T11:03:23.789Z,13.23
2022-12-25T11:05:51.774Z,11.73
2022-12-25T11:08:21.236Z,13.40
2022-12-25T11:10:56.369Z,12.68
2022-12-25T11:13:30.084Z,11.15
2022-12-25T11:16:06.173Z,11.43
2022-12-25T11:18:37.052Z,14.57
2022-12-25T11:21:14.357Z,12.18
2022-12-25T11:23:44.881Z,13.18
2022-12-25T11:26:11.820Z,17.42
2022-12-25T11:28:40.632Z,24.02
2022-12-25T11:31:30.615Z,26.50
2022-12-25T11:33:59.118Z,22.92
2022-12-25T11:36:30.064Z,19.92
2022-12-25T11:38:59.463Z,21.00
2022-12-25T11:41:30.616Z,22.30
2022-12-25T11:43:59.502Z,19.88
2022-12-25T11:46:32.389Z,18.50
2022-12-25T11:49:05.719Z,15.90
2022-12-25T11:51:35.002Z,16.65
2022-12-25T11:54:08.127Z,17.77
2022-12-25T11:56:34.714Z,16.83
2022-12-25T11:59:10.549Z,15.48
2022-12-25T12:01:45.480Z,14.40
2022-12-25T12:04:18.411Z,15.85
2022-12-25T12:06:54.873Z,119.35
2022-12-25T12:09:39.251Z,100.72
2022-12-25T12:12:26.222Z,46.33
2022-12-25T12:15:04.389Z,40.40
2022-12-25T12:17:31.241Z,22.98
2022-12-25T12:19:59.026Z,23.13
2022-12-25T12:22:27.731Z,30.05
2022-12-25T12:24:58.348Z,17.90
2022-12-25T12:27:27.669Z,21.67
2022-12-25T12:29:56.489Z,21.63
2022-12-25T12:32:34.878Z,28.58
2022-12-25T12:35:27.946Z,32.03
2022-12-25T12:37:57.888Z,18.52
2022-12-25T12:40:30.241Z,29.52
2022-12-25T12:42:56.904Z,28.50
2022-12-25T12:45:26.310Z,26.70
2022-12-25T12:47:53.069Z,24.02
2022-12-25T12:50:34.261Z,25.85
2022-12-25T12:53:15.354Z,28.63
2022-12-25T12:55:41.894Z,24.70
2022-12-25T12:58:11.985Z,33.05
2022-12-25T13:00:44.779Z,122.38
2022-12-25T13:03:11.261Z,44.13
2022-12-25T13:05:45.244Z,32.17
2022-12-25T13:08:14.754Z,34.70
2022-12-25T13:10:46.755Z,41.20
2022-12-25T13:13:16.475Z,67.18
2022-12-25T13:15:46.034Z,42.65
2022-12-25T13:18:13.099Z,218.93
2022-12-25T13:20:55.036Z,58.40
2022-12-25T13:23:21.577Z,30.45
2022-12-25T13:25:51.879Z,49.95
2022-12-25T13:28:24.071Z,32.95
2022-12-25T13:30:50.496Z,29.23
2022-12-25T13:33:18.545Z,26.52
2022-12-25T13:35:45.435Z,48.00
2022-12-25T13:38:16.551Z,43.03
2022-12-25T13:41:09.631Z,40.50
2022-12-25T13:43:37.214Z,22.58
2022-12-25T13:46:03.921Z,22.08
2022-12-25T13:48:31.520Z,28.65
2022-12-25T13:50:58.959Z,54.42
2022-12-25T13:53:26.508Z,36.20
2022-12-25T13:55:54.565Z,66.43
2022-12-25T13:58:34.883Z,37.55
2022-12-25T14:01:02.656Z,52.17
2022-12-25T14:03:33.537Z,43.08
2022-12-25T14:06:01.035Z,42.42
2022-12-25T14:08:29.012Z,35.05
2022-12-25T14:10:56.920Z,41.95
2022-12-25T14:13:28.406Z,29.33
2022-12-25T14:15:55.994Z,76.05
2022-12-25T14:18:23.671Z,38.47
2022-12-25T14:21:09.122Z,31.13
2022-12-25T14:23:41.389Z,53.47
2022-12-25T14:26:14.542Z,29.23
2022-12-25T14:28:41.073Z,37.45
2022-12-25T14:31:11.642Z,28.98
2022-12-25T14:33:38.926Z,25.65
2022-12-25T14:36:06.779Z,24.05
2022-12-25T14:38:35.131Z,25.10
2022-12-25T14:41:02.922Z,27.58
2022-12-25T14:43:30.190Z,27.83
2022-12-25T14:46:01.310Z,28.63
2022-12-25T14:48:29.049Z,26.02
2022-12-25T14:51:04.706Z,37.25
2022-12-25T14:53:36.541Z,30.98
2022-12-25T14:56:03.708Z,27.80
2022-12-25T14:58:32.828Z,25.83
2022-12-25T15:01:04.288Z,23.45
2022-12-25T15:03:32.927Z,24.30
2022-12-25T15:06:25.959Z,24.67
2022-12-25T15:08:56.859Z,24.48
2022-12-25T15:11:23.269Z,26.92
2022-12-25T15:13:49.822Z,27.02
2022-12-25T15:16:19.546Z,25.23
2022-12-25T15:18:46.679Z,26.88
2022-12-25T15:21:24.545Z,26.35
2022-12-25T15:23:52.019Z,27.45
2022-12-25T15:26:18.427Z,26.20
2022-12-25T15:28:44.933Z,26.80
2022-12-25T15:31:31.013Z,26.38
2022-12-25T15:33:58.316Z,25.98
2022-12-25T15:36:25.011Z,26.60
2022-12-25T15:38:51.640Z,26.55
2022-12-25T15:41:47.894Z,25.23
2022-12-25T15:44:15.324Z,23.40
2022-12-25T15:46:41.849Z,23.45
2022-12-25T15:49:09.322Z,24.60
2022-12-25T15:51:35.772Z,24.73
2022-12-25T15:54:02.411Z,24.92
2022-12-25T15:56:29.650Z,24.58
2022-12-25T15:58:56.185Z,23.63
2022-12-25T16:01:22.739Z,24.73
2022-12-25T16:03:49.397Z,21.17
2022-12-25T16:06:17.095Z,21.27
2022-12-25T16:08:43.994Z,22.77
2022-12-25T16:11:10.887Z,22.38
2022-12-25T16:13:37.638Z,22.52
2022-12-25T16:16:05.162Z,23.23
2022-12-25T16:18:31.719Z,23.63
2022-12-25T16:20:59.462Z,22.65
2022-12-25T16:23:26.075Z,23.17
2022-12-25T16:25:55.621Z,23.80
2022-12-25T16:28:22.064Z,23.63
2022-12-25T16:30:48.537Z,25.38
2022-12-25T16:33:15.596Z,26.42
2022-12-25T16:35:42.121Z,24.25
2022-12-25T16:38:08.511Z,21.10
2022-12-25T16:40:35.146Z,20.58
2022-12-25T16:43:01.617Z,36.28
2022-12-25T16:45:28.177Z,26.52
2022-12-25T16:47:56.034Z,28.42
2022-12-25T16:50:22.648Z,30.90
2022-12-25T16:52:49.101Z,30.38
2022-12-25T16:55:18.459Z,30.33
2022-12-25T16:57:47.780Z,29.95
2022-12-25T17:00:14.514Z,27.38
2022-12-25T17:02:41.263Z,25.35
2022-12-25T17:05:08.133Z,24.67
2022-12-25T17:07:35.433Z,24.38
2022-12-25T17:10:01.941Z,25.70
2022-12-25T17:12:28.376Z,24.80
2022-12-25T17:14:54.820Z,23.60
2022-12-25T17:17:21.310Z,23.63
2022-12-25T17:19:47.790Z,28.02
2022-12-25T17:22:14.291Z,25.83
2022-12-25T17:24:41.583Z,23.85
2022-12-25T17:27:11.356Z,23.58
2022-12-25T17:29:42.690Z,23.85
2022-12-25T17:32:09.425Z,23.65
2022-12-25T17:34:36.249Z,25.35
2022-12-25T17:37:02.829Z,23.98
2022-12-25T17:39:29.447Z,24.48
2022-12-25T17:41:56.078Z,26.60
2022-12-25T17:44:22.696Z,23.80
2022-12-25T17:46:49.421Z,25.05
2022-12-25T17:49:17.706Z,23.65
2022-12-25T17:51:44.542Z,23.85
2022-12-25T17:54:11.208Z,24.08
2022-12-25T17:56:37.866Z,23.30
2022-12-25T17:59:08.073Z,24.17
2022-12-25T18:01:35.754Z,24.55
2022-12-25T18:04:02.594Z,24.63
2022-12-25T18:06:29.683Z,24.80
2022-12-25T18:08:57.139Z,24.27
2022-12-25T18:11:29.267Z,23.67
2022-12-25T18:13:57.992Z,23.55
2022-12-25T18:16:25.745Z,23.55
2022-12-25T18:18:53.123Z,23.95
2022-12-25T18:21:23.081Z,24.60
2022-12-25T18:23:49.781Z,25.60
2022-12-25T18:26:16.624Z,26.08
2022-12-25T18:28:43.962Z,27.75
2022-12-25T18:31:11.407Z,28.95
2022-12-25T18:33:37.916Z,29.88
2022-12-25T18:36:04.726Z,29.83
2022-12-25T18:38:31.219Z,28.75
2022-12-25T18:40:58.054Z,29.33
2022-12-25T18:43:52.221Z,28.83
2022-12-25T18:46:11.693Z,31.10
2022-12-25T18:48:38.260Z,30.48
2022-12-25T18:51:06.564Z,28.65
2022-12-25T18:53:33.005Z,28.98
2022-12-25T18:56:09.779Z,29.73
2022-12-25T18:58:37.886Z,28.73
2022-12-25T19:01:14.309Z,29.23
2022-12-25T19:03:41.196Z,30.08
2022-12-25T19:06:07.792Z,28.85
2022-12-25T19:08:34.338Z,29.75
2022-12-25T19:11:00.807Z,30.00
2022-12-25T19:13:27.271Z,29.63
2022-12-25T19:15:57.265Z,28.90
2022-12-25T19:18:23.730Z,30.40
2022-12-25T19:20:50.184Z,29.35
2022-12-25T19:23:16.675Z,29.45
2022-12-25T19:25:43.111Z,29.67
2022-12-25T19:28:09.579Z,32.65
2022-12-25T19:30:37.563Z,32.55
2022-12-25T19:33:04.197Z,31.17
2022-12-25T19:35:30.583Z,30.65
2022-12-25T19:37:57.199Z,29.17
2022-12-25T19:40:23.953Z,30.85
2022-12-25T19:42:50.371Z,30.13
2022-12-25T19:45:17.259Z,28.50
2022-12-25T19:47:53.080Z,30.38
2022-12-25T19:50:19.814Z,29.60
2022-12-25T19:52:46.550Z,28.98
2022-12-25T19:55:13.251Z,28.98
2022-12-25T19:57:40.352Z,28.05
2022-12-25T20:00:07.316Z,28.90
2022-12-25T20:02:33.955Z,25.75
2022-12-25T20:05:00.628Z,26.42
2022-12-25T20:07:27.274Z,25.65
2022-12-25T20:09:53.866Z,25.33
2022-12-25T20:12:20.613Z,24.08
2022-12-25T20:14:47.285Z,25.10
2022-12-25T20:17:16.195Z,26.73
2022-12-25T20:19:43.183Z,25.15
2022-12-25T20:22:09.847Z,24.02
2022-12-25T20:24:37.533Z,23.60
2022-12-25T20:27:04.221Z,23.80
2022-12-25T20:29:31.096Z,23.55
2022-12-25T20:31:57.970Z,23.13
2022-12-25T20:34:24.808Z,22.17
2022-12-25T20:36:51.731Z,23.13
2022-12-25T20:39:18.295Z,23.58
2022-12-25T20:41:45.344Z,22.85
2022-12-25T20:44:13.352Z,23.88
2022-12-25T20:46:40.036Z,23.98
2022-12-25T20:49:09.373Z,23.65
2022-12-25T20:51:36.215Z,23.67
2022-12-25T20:54:05.766Z,22.20
2022-12-25T20:56:32.415Z,23.48
2022-12-25T20:59:00.021Z,23.30
2022-12-25T21:01:27.481Z,23.65
2022-12-25T21:03:54.504Z,21.80
2022-12-25T21:06:21.470Z,22.40
2022-12-25T21:08:48.082Z,22.50
2022-12-25T21:11:15.789Z,22.08
2022-12-25T21:13:43.058Z,23.48
2022-12-25T21:16:11.673Z,22.83
2022-12-25T21:18:39.005Z,22.20
2022-12-25T21:21:07.719Z,21.75
2022-12-25T21:23:35.746Z,22.92
2022-12-25T21:26:09.806Z,23.23
2022-12-25T21:28:36.420Z,23.05
2022-12-25T21:31:07.017Z,25.35
2022-12-25T21:33:52.061Z,25.02
2022-12-25T21:36:20.805Z,25.90
2022-12-25T21:38:47.691Z,25.08
2022-12-25T21:41:14.843Z,25.95
2022-12-25T21:43:43.245Z,25.05
2022-12-25T21:46:13.645Z,23.27
2022-12-25T21:48:40.829Z,23.85
2022-12-25T21:51:36.234Z,23.45
2022-12-25T21:54:03.112Z,22.48
2022-12-25T21:56:30.935Z,22.98
2022-12-25T21:59:01.317Z,23.38
2022-12-25T22:01:28.506Z,22.45
2022-12-25T22:03:55.236Z,23.73
2022-12-25T22:06:40.237Z,22.55
2022-12-25T22:09:16.478Z,22.25
2022-12-25T22:12:01.660Z,22.75
2022-12-25T22:14:52.187Z,21.75
2022-12-25T22:17:40.445Z,21.15
2022-12-25T22:20:08.624Z,20.67
2022-12-25T22:22:35.261Z,22.15
2022-12-25T22:25:02.440Z,21.20
2022-12-25T22:27:33.451Z,21.20
2022-12-25T22:29:59.959Z,22.05
2022-12-25T22:32:26.909Z,22.20
2022-12-25T22:34:53.399Z,21.90
2022-12-25T22:37:20.005Z,21.80
2022-12-25T22:39:46.679Z,22.65
2022-12-25T22:42:13.116Z,22.50
2022-12-25T22:44:39.692Z,23.13
2022-12-25T22:47:06.167Z,22.60
2022-12-25T22:49:32.630Z,23.88
2022-12-25T22:51:59.021Z,23.67
2022-12-25T22:54:25.737Z,24.05
2022-12-25T22:56:52.795Z,24.73
2022-12-25T22:59:20.198Z,25.83
2022-12-25T23:01:46.947Z,26.88
2022-12-25T23:04:13.436Z,25.40
2022-12-25T23:06:40.229Z,29.08
2022-12-25T23:09:07.849Z,27.95
2022-12-25T23:11:34.819Z,28.80
2022-12-25T23:14:19.919Z,30.15
2022-12-25T23:16:46.335Z,27.05
2022-12-25T23:19:31.720Z,28.55
2022-12-25T23:22:16.629Z,27.25
2022-12-25T23:25:01.447Z,27.08
2022-12-25T23:27:27.897Z,28.73
2022-12-25T23:29:54.457Z,27.50
2022-12-25T23:32:22.577Z,26.58
2022-12-25T23:34:49.514Z,27.13
2022-12-25T23:37:15.970Z,26.55
2022-12-25T23:39:42.396Z,27.30
2022-12-25T23:42:08.843Z,27.60
2022-12-25T23:44:35.396Z,27.42
2022-12-25T23:47:02.982Z,26.52
2022-12-25T23:49:29.958Z,25.52
2022-12-25T23:51:56.703Z,24.38
2022-12-25T23:54:24.412Z,23.95
2022-12-25T23:56:51.357Z,23.45
2022-12-25T23:59:17.826Z,24.02
